Viestit - kartta · info · telemetria · sää · paketit · status · majakat · viestit · bulletiinit · selailu · liikkuvat · käyttäjätunnus
Kutsu:
Näytä:

Lataan message-paketteja...

Viestejä säilytetään 14 päivää. Voit hakea kutsuja villikortteja (*?) käyttäen.

2018-06-18 13:12:27 EDT: WLNK-1>DF1CHB: You have 1 Winlink mail messages pending
2018-06-18 13:12:51 EDT: SLCSVR>NWS-WARN: 181800z,SVR_STORM,UTC035-043
2018-06-18 13:12:51 EDT: SLCSVR>NWS_WARN: 181800z,SVR_STORM,UTC035-043
2018-06-18 13:12:58 EDT: IZ0DPP-3>IZ5TJI: test
2018-06-18 13:13:51 EDT: SLCSVR>NWS-WARN: 181800z,SVR_STORM,UTC035-043
2018-06-18 13:13:51 EDT: SLCSVR>NWS_WARN: 181800z,SVR_STORM,UTC035-043
2018-06-18 13:14:27 EDT: WLNK-1>DF1CHB: You have 1 Winlink mail messages pending
2018-06-18 13:14:51 EDT: SLCSVR>NWS-WARN: 181800z,SVR_STORM,UTC035-043
2018-06-18 13:14:51 EDT: SLCSVR>NWS_WARN: 181800z,SVR_STORM,UTC035-043
2018-06-18 13:15:05 EDT: DB0TGO-15>DL7ATA: Solarpower 1.0 Ampere, 12.7 Volt
2018-06-18 13:15:51 EDT: SLCSVR>NWS-WARN: 181800z,SVR_STORM,UTC035-043
2018-06-18 13:15:51 EDT: SLCSVR>NWS_WARN: 181800z,SVR_STORM,UTC035-043
2018-06-18 13:16:13 EDT: 2M0WTE-9>2M1DHG-5: Hi from Peter and Sue now you doing
2018-06-18 13:16:26 EDT: KM4KAW-9>KM4KAW: SitRep: 12.45348 83.75f
2018-06-18 13:16:34 EDT: TMWMWW>BOM-CANCL: 181716z,WIND,TAS_MW003>004-009
2018-06-18 13:16:35 EDT: KIMMWW>BOM-CANCL: 181716z,WIND,WA_MW001-007>012-015
2018-06-18 13:16:36 EDT: WCWMWW>BOM-CANCL: 181716z,WIND,WA_MW001-007>012-015
2018-06-18 13:16:36 EDT: WLWMWW>BOM-CANCL: 181716z,WIND,WA_MW001-007>012-015
2018-06-18 13:16:36 EDT: WSWMWW>BOM-CANCL: 181716z,WIND,WA_MW001-007>012-015
2018-06-18 13:16:36 EDT: SCLMWW>BOM-CANCL: 181716z,WIND,WA_MW001-007>012-015
2018-06-18 13:16:37 EDT: QMWMWW>BOM-CANCL: 181716z,WIND,QLD_MW001-008
2018-06-18 13:16:37 EDT: TECMWW>BOM-CANCL: 181716z,WIND,TAS_MW005
2018-06-18 13:16:39 EDT: VMWMWW>BOM_WARN: 191400z,WIND,VIC_MW004
2018-06-18 13:16:39 EDT: VMWMWW>BOMVMW: Strong Wind Warning for coastal waters between Lakes
2018-06-18 13:16:39 EDT: VMWMWW>BOMVMW: Entrance and 60nm east of Gabo Island for Tuesday
2018-06-18 13:16:39 EDT: NMWHSW>BOM_WARN: 201400z,BUSHFIRE,NSW_MW003>005
2018-06-18 13:16:39 EDT: NMWHSW>BOMNMW: Hazardous Surf Warning for Hunter Coast: Seal Rocks to
2018-06-18 13:16:39 EDT: NMWHSW>BOMNMW: Broken Bay, Sydney Coast: Broken Bay to Port Hacking and
2018-06-18 13:16:39 EDT: NMWHSW>BOMNMW: Illawarra Coast: Port Hacking to Ulladulla for Wednesday
2018-06-18 13:16:40 EDT: VMWMWW>BOM_CANCL: 191400z,WIND,VIC_MW003
2018-06-18 13:16:40 EDT: VMWMWW>BOMVMW: Cancellation of Wind Warning for Central Gippsland Coast:
2018-06-18 13:16:40 EDT: VMWMWW>BOMVMW: Wilsons Promontory to Lakes Entrance for Monday
2018-06-18 13:16:59 EDT: G0RSQ>G4FKH: A,-107.9,-109.3,-110.2,B,-101.9,-103.5,-104.6,C,-107.3,-113.1,-114.2,D,-99.2,-100.7,-101.7,E,-107,-109.7,-110.6
2018-06-18 13:17:04 EDT: DB0TS-10>DB0TS-9: T#001,000,000,000,000,000,00000000,Test
2018-06-18 13:18:22 EDT: EA2EEB>EA2EEB: probando
2018-06-18 13:18:27 EDT: WLNK-1>DF1CHB: You have 1 Winlink mail messages pending
2018-06-18 13:20:25 EDT: N1HQ>NWS_STMNT: 191000z,Rip Current Risk,FLZ108-112
2018-06-18 13:20:51 EDT: SLCSVR>NWS-WARN: 181800z,SVR_STORM,UTC035-043
2018-06-18 13:20:51 EDT: SLCSVR>NWS_WARN: 181800z,SVR_STORM,UTC035-043
2018-06-18 13:21:05 EDT: KA6ECT>KA6ECT: 1183-Trfc Collision-Unkn Inj at Sr134 W / N Central Ave
2018-06-18 13:21:27 EDT: KM4KAW-9>KM4KAW: SitRep: 12.48896 84.20f
2018-06-18 13:21:51 EDT: BUFSVR>NWS-WARN: 181800z,SVR_STORM,NYC029-063
2018-06-18 13:21:51 EDT: BUFSVR>NWS_WARN: 181800z,SVR_STORM,NYC029-063
2018-06-18 13:22:51 EDT: BUFSVR>NWS-WARN: 181800z,SVR_STORM,NYC029-063
2018-06-18 13:22:51 EDT: BUFSVR>NWS_WARN: 181800z,SVR_STORM,NYC029-063
2018-06-18 13:23:27 EDT: K2DLS-13>NWS_ADVIS: 190000z,Heat,NJC025-DEZ001-NJZ001-007>010-012-013-015-017>020-027
2018-06-18 13:23:31 EDT: K7ZJL-9>KI7AY-7: are you receiving this?
2018-06-18 13:23:51 EDT: BUFSVR>NWS-WARN: 181800z,SVR_STORM,NYC029-063
2018-06-18 13:23:51 EDT: BUFSVR>NWS_WARN: 181800z,SVR_STORM,NYC029-063
2018-06-18 13:24:24 EDT: AD7BN-5>SMSGTE: @gpho Another test
< edelliset
FAQ · Blogi · Keskusteluryhmä · Linking to aprs.fi · AIS-vastaanottimet · Palvelun tila · Tilastoja tietokannasta · Advertising on aprs.fi · Technical details · API · Change log · Planned changes · Credits and thanks · Terms Of Service · iPhone/iPad APRS